createdAt,value
2022-12-11T00:01:53.022Z,9.25
2022-12-11T00:04:21.240Z,9.90
2022-12-11T00:06:50.532Z,12.95
2022-12-11T00:09:19.376Z,10.25
2022-12-11T00:11:48.350Z,10.35
2022-12-11T00:14:17.432Z,9.40
2022-12-11T00:16:45.843Z,9.73
2022-12-11T00:19:15.460Z,8.50
2022-12-11T00:21:43.617Z,9.85
2022-12-11T00:24:11.872Z,9.75
2022-12-11T00:26:40.457Z,11.55
2022-12-11T00:29:11.211Z,11.10
2022-12-11T00:31:39.449Z,8.80
2022-12-11T00:34:07.727Z,11.48
2022-12-11T00:36:37.357Z,10.13
2022-12-11T00:39:06.330Z,11.23
2022-12-11T00:41:34.748Z,11.40
2022-12-11T00:44:03.275Z,10.85
2022-12-11T00:46:31.820Z,9.60
2022-12-11T00:49:00.032Z,10.25
2022-12-11T00:51:28.286Z,10.07
2022-12-11T00:53:57.879Z,10.60
2022-12-11T00:56:26.348Z,11.20
2022-12-11T00:58:54.597Z,10.48
2022-12-11T01:01:25.721Z,10.63
2022-12-11T01:03:54.928Z,10.07
2022-12-11T01:06:26.315Z,11.63
2022-12-11T01:09:15.447Z,9.85
2022-12-11T01:11:44.375Z,10.23
2022-12-11T01:14:13.508Z,11.77
2022-12-11T01:16:41.915Z,9.27
2022-12-11T01:19:10.266Z,10.10
2022-12-11T01:21:38.710Z,10.75
2022-12-11T01:24:07.783Z,11.48
2022-12-11T01:26:36.093Z,9.55
2022-12-11T01:29:05.674Z,10.30
2022-12-11T01:31:34.009Z,8.75
2022-12-11T01:34:02.464Z,9.65
2022-12-11T01:36:30.668Z,10.52
2022-12-11T01:38:59.157Z,9.63
2022-12-11T01:41:27.443Z,10.27
2022-12-11T01:44:06.517Z,8.40
2022-12-11T01:46:37.700Z,8.25
2022-12-11T01:49:09.987Z,10.68
2022-12-11T01:51:43.917Z,10.13
2022-12-11T01:54:14.965Z,10.23
2022-12-11T01:59:19.475Z,10.32
2022-12-11T02:01:52.138Z,10.48
2022-12-11T02:04:21.886Z,9.65
2022-12-11T02:06:52.249Z,9.63
2022-12-11T02:09:24.891Z,10.95
2022-12-11T02:12:03.712Z,10.93
2022-12-11T02:14:40.503Z,9.77
2022-12-11T02:17:14.817Z,10.95
2022-12-11T02:19:56.918Z,11.07
2022-12-11T02:22:42.745Z,10.45
2022-12-11T02:25:19.909Z,10.35
2022-12-11T02:27:56.592Z,10.07
2022-12-11T02:30:26.853Z,10.73
2022-12-11T02:32:58.240Z,10.88
2022-12-11T02:35:32.390Z,9.85
2022-12-11T02:38:04.856Z,9.63
2022-12-11T02:40:36.708Z,10.07
2022-12-11T02:43:08.693Z,8.30
2022-12-11T02:45:40.446Z,8.65
2022-12-11T02:48:12.026Z,8.75
2022-12-11T02:50:45.832Z,10.63
2022-12-11T02:53:17.807Z,9.90
2022-12-11T02:55:47.604Z,10.82
2022-12-11T02:58:21.082Z,9.00
2022-12-11T03:00:51.001Z,8.88
2022-12-11T03:03:19.387Z,8.15
2022-12-11T03:05:47.887Z,8.95
2022-12-11T03:08:17.962Z,8.75
2022-12-11T03:10:47.010Z,7.90
2022-12-11T03:13:18.071Z,8.52
2022-12-11T03:18:32.632Z,8.75
2022-12-11T03:21:07.873Z,10.07
2022-12-11T03:23:43.168Z,8.98
2022-12-11T03:26:14.874Z,8.98
2022-12-11T03:28:50.028Z,9.05
2022-12-11T03:31:28.889Z,8.82
2022-12-11T03:34:03.947Z,9.45
2022-12-11T03:36:36.416Z,7.53
2022-12-11T03:39:10.455Z,8.07
2022-12-11T03:41:39.927Z,8.48
2022-12-11T03:44:10.180Z,9.80
2022-12-11T03:46:42.357Z,8.00
2022-12-11T03:49:17.605Z,7.95
2022-12-11T03:51:50.303Z,8.93
2022-12-11T03:54:19.285Z,9.05
2022-12-11T03:56:49.468Z,8.65
2022-12-11T03:59:17.659Z,7.72
2022-12-11T04:01:47.366Z,9.20
2022-12-11T04:04:15.813Z,8.40
2022-12-11T04:06:44.072Z,9.82
2022-12-11T04:09:12.366Z,9.52
2022-12-11T04:11:42.862Z,8.77
2022-12-11T04:14:32.360Z,10.02
2022-12-11T04:17:03.040Z,8.70
2022-12-11T04:19:48.627Z,8.95
2022-12-11T04:22:51.413Z,10.18
2022-12-11T04:25:20.069Z,9.50
2022-12-11T04:27:51.307Z,10.70
2022-12-11T04:30:22.577Z,9.32
2022-12-11T04:32:53.131Z,8.55
2022-12-11T04:35:21.977Z,10.20
2022-12-11T04:37:50.734Z,9.40
2022-12-11T04:40:20.624Z,9.38
2022-12-11T04:42:49.293Z,8.82
2022-12-11T04:45:17.569Z,9.00
2022-12-11T04:47:45.784Z,8.90
2022-12-11T04:50:16.783Z,9.63
2022-12-11T04:55:14.357Z,9.02
2022-12-11T04:57:42.811Z,8.02
2022-12-11T05:00:13.488Z,9.52
2022-12-11T05:02:43.422Z,9.02
2022-12-11T05:05:14.348Z,9.73
2022-12-11T05:07:43.041Z,9.30
2022-12-11T05:10:11.940Z,8.32
2022-12-11T05:12:40.323Z,8.65
2022-12-11T05:15:10.128Z,9.40
2022-12-11T05:17:38.585Z,10.02
2022-12-11T05:20:08.534Z,8.02
2022-12-11T05:22:38.973Z,9.00
2022-12-11T05:25:08.844Z,6.88
2022-12-11T05:27:37.497Z,9.63
2022-12-11T05:30:07.404Z,8.38
2022-12-11T05:32:35.633Z,8.82
2022-12-11T05:35:04.731Z,7.93
2022-12-11T05:37:35.364Z,9.32
2022-12-11T05:40:07.365Z,8.05
2022-12-11T05:42:35.953Z,9.35
2022-12-11T05:45:04.867Z,7.95
2022-12-11T05:47:33.305Z,9.70
2022-12-11T05:50:01.507Z,7.78
2022-12-11T05:52:29.731Z,9.48
2022-12-11T05:54:57.968Z,9.05
2022-12-11T05:57:27.564Z,8.60
2022-12-11T05:59:55.799Z,9.10
2022-12-11T06:02:24.289Z,7.68
2022-12-11T06:04:52.644Z,9.00
2022-12-11T06:07:20.849Z,7.75
2022-12-11T06:09:49.096Z,7.82
2022-12-11T06:12:18.897Z,7.10
2022-12-11T06:14:48.486Z,8.13
2022-12-11T06:17:16.769Z,7.82
2022-12-11T06:19:44.913Z,8.43
2022-12-11T06:22:13.074Z,8.32
2022-12-11T06:24:41.536Z,8.23
2022-12-11T06:27:10.092Z,7.63
2022-12-11T06:29:38.312Z,8.38
2022-12-11T06:32:08.083Z,7.18
2022-12-11T06:34:36.256Z,8.32
2022-12-11T06:37:04.488Z,6.75
2022-12-11T06:39:32.972Z,6.88
2022-12-11T06:42:01.365Z,6.47
2022-12-11T06:44:29.881Z,7.20
2022-12-11T06:46:58.313Z,6.32
2022-12-11T06:49:27.997Z,6.82
2022-12-11T06:51:56.246Z,7.13
2022-12-11T06:54:27.907Z,6.50
2022-12-11T06:56:56.166Z,5.72
2022-12-11T06:59:24.395Z,7.50
2022-12-11T07:01:52.619Z,6.20
2022-12-11T07:04:24.665Z,6.32
2022-12-11T07:06:54.244Z,7.70
2022-12-11T07:09:22.997Z,6.05
2022-12-11T07:11:51.413Z,6.63
2022-12-11T07:14:20.172Z,7.40
2022-12-11T07:16:48.402Z,6.43
2022-12-11T07:19:16.933Z,6.20
2022-12-11T07:21:45.114Z,7.00
2022-12-11T07:24:14.770Z,6.68
2022-12-11T07:26:43.076Z,7.53
2022-12-11T07:29:11.556Z,7.32
2022-12-11T07:31:39.811Z,6.25
2022-12-11T07:34:08.856Z,7.28
2022-12-11T07:36:37.075Z,6.13
2022-12-11T07:39:05.805Z,8.23
2022-12-11T07:41:35.695Z,6.60
2022-12-11T07:44:04.775Z,6.72
2022-12-11T07:46:34.447Z,7.03
2022-12-11T07:49:03.278Z,6.55
2022-12-11T07:51:33.520Z,7.13
2022-12-11T07:54:04.988Z,6.00
2022-12-11T07:56:35.746Z,6.28
2022-12-11T07:59:06.768Z,8.15
2022-12-11T08:01:37.055Z,6.65
2022-12-11T08:04:07.539Z,6.95
2022-12-11T08:06:38.489Z,6.43
2022-12-11T08:09:09.664Z,6.97
2022-12-11T08:11:39.302Z,7.38
2022-12-11T08:14:08.762Z,8.13
2022-12-11T08:16:38.049Z,6.63
2022-12-11T08:19:06.245Z,7.68
2022-12-11T08:21:34.499Z,7.00
2022-12-11T08:24:02.852Z,7.30
2022-12-11T08:26:32.904Z,6.35
2022-12-11T08:29:03.234Z,7.07
2022-12-11T08:31:32.045Z,6.40
2022-12-11T08:34:00.356Z,6.28
2022-12-11T08:36:28.699Z,5.85
2022-12-11T08:38:58.007Z,5.85
2022-12-11T08:41:28.744Z,6.15
2022-12-11T08:43:58.786Z,6.53
2022-12-11T08:46:30.912Z,5.70
2022-12-11T08:49:00.285Z,6.57
2022-12-11T08:51:30.766Z,5.80
2022-12-11T08:54:01.330Z,6.35
2022-12-11T08:56:30.621Z,6.45
2022-12-11T08:59:01.738Z,6.95
2022-12-11T09:01:31.756Z,6.63
2022-12-11T09:04:00.169Z,6.37
2022-12-11T09:06:30.627Z,6.65
2022-12-11T09:09:01.545Z,6.63
2022-12-11T09:11:32.262Z,5.50
2022-12-11T09:14:06.882Z,6.32
2022-12-11T09:16:40.383Z,6.45
2022-12-11T09:19:12.615Z,5.28
2022-12-11T09:21:44.097Z,5.78
2022-12-11T09:24:14.292Z,6.47
2022-12-11T09:26:43.015Z,6.38
2022-12-11T09:29:13.377Z,7.28
2022-12-11T09:31:43.592Z,5.70
2022-12-11T09:34:14.811Z,6.90
2022-12-11T09:36:45.336Z,6.28
2022-12-11T09:39:15.680Z,6.53
2022-12-11T09:41:53.600Z,6.82
2022-12-11T09:44:32.767Z,6.45
2022-12-11T09:47:02.672Z,6.43
2022-12-11T09:49:39.446Z,6.50
2022-12-11T09:52:15.401Z,6.25
2022-12-11T09:54:50.874Z,6.32
2022-12-11T09:57:46.245Z,6.70
2022-12-11T10:00:28.060Z,6.25
2022-12-11T10:03:34.017Z,6.60
2022-12-11T10:06:09.137Z,7.32
2022-12-11T10:08:46.347Z,7.65
2022-12-11T10:11:34.453Z,6.82
2022-12-11T10:14:11.762Z,7.20
2022-12-11T10:16:45.928Z,7.00
2022-12-11T10:19:22.100Z,7.13
2022-12-11T10:21:52.880Z,8.18
2022-12-11T10:24:59.380Z,6.78
2022-12-11T10:27:21.184Z,8.02
2022-12-11T10:29:54.446Z,7.22
2022-12-11T10:32:26.833Z,6.82
2022-12-11T10:35:02.712Z,6.63
2022-12-11T10:37:30.910Z,6.72
2022-12-11T10:39:59.159Z,6.93
2022-12-11T10:42:27.416Z,6.82
2022-12-11T10:45:01.570Z,8.52
2022-12-11T10:47:30.635Z,6.95
2022-12-11T10:50:03.450Z,6.80
2022-12-11T10:52:38.071Z,6.97
2022-12-11T10:55:10.470Z,6.47
2022-12-11T10:57:40.546Z,6.65
2022-12-11T11:00:33.101Z,7.18
2022-12-11T11:03:02.799Z,7.07
2022-12-11T11:05:36.459Z,6.25
2022-12-11T11:08:19.376Z,6.35
2022-12-11T11:10:56.693Z,6.85
2022-12-11T11:13:27.413Z,6.32
2022-12-11T11:16:02.783Z,5.97
2022-12-11T11:18:33.068Z,5.97
2022-12-11T11:21:03.635Z,5.88
2022-12-11T11:23:32.343Z,5.55
2022-12-11T11:26:03.662Z,5.28
2022-12-11T11:28:36.387Z,5.85
2022-12-11T11:31:07.503Z,5.63
2022-12-11T11:33:38.982Z,6.47
2022-12-11T11:36:21.660Z,6.57
2022-12-11T11:39:04.830Z,5.82
2022-12-11T11:41:42.031Z,6.68
2022-12-11T11:44:16.075Z,6.43
2022-12-11T11:46:50.141Z,6.35
2022-12-11T11:49:27.023Z,6.40
2022-12-11T11:52:03.300Z,7.03
2022-12-11T11:54:36.408Z,6.28
2022-12-11T11:57:17.047Z,6.32
2022-12-11T11:59:51.974Z,6.55
2022-12-11T12:02:21.328Z,6.55
2022-12-11T12:04:51.352Z,6.38
2022-12-11T12:07:36.067Z,5.78
2022-12-11T12:10:16.650Z,6.28
2022-12-11T12:12:53.613Z,7.70
2022-12-11T12:15:37.972Z,6.72
2022-12-11T12:18:16.797Z,6.90
2022-12-11T12:20:56.625Z,6.50
2022-12-11T12:23:49.694Z,5.97
2022-12-11T12:26:27.237Z,6.78
2022-12-11T12:29:12.578Z,6.10
2022-12-11T12:32:02.278Z,6.00
2022-12-11T12:34:54.205Z,5.97
2022-12-11T12:37:43.878Z,6.00
2022-12-11T12:40:21.974Z,6.63
2022-12-11T12:42:59.671Z,6.13
2022-12-11T12:45:34.928Z,6.80
2022-12-11T12:48:03.632Z,6.22
2022-12-11T12:50:39.529Z,7.38
2022-12-11T12:53:09.060Z,6.93
2022-12-11T12:55:38.798Z,6.13
2022-12-11T12:58:08.891Z,6.32
2022-12-11T13:00:40.709Z,6.60
2022-12-11T13:03:17.443Z,5.63
2022-12-11T13:05:57.406Z,5.70
2022-12-11T13:08:27.814Z,5.47
2022-12-11T13:11:04.756Z,6.72
2022-12-11T13:13:38.136Z,5.80
2022-12-11T13:16:28.752Z,6.57
2022-12-11T13:18:57.112Z,6.13
2022-12-11T13:21:33.133Z,5.75
2022-12-11T13:24:25.577Z,6.03
2022-12-11T13:26:55.783Z,5.93
2022-12-11T13:29:35.931Z,5.18
2022-12-11T13:32:22.625Z,5.23
2022-12-11T13:34:57.464Z,6.05
2022-12-11T13:37:31.909Z,5.55
2022-12-11T13:40:00.839Z,5.95
2022-12-11T13:42:34.805Z,6.60
2022-12-11T13:45:05.170Z,5.78
2022-12-11T13:47:34.321Z,5.25
2022-12-11T13:50:16.162Z,6.22
2022-12-11T13:52:54.985Z,6.05
2022-12-11T13:55:27.220Z,7.15
2022-12-11T13:57:57.528Z,5.25
2022-12-11T14:00:29.573Z,6.63
2022-12-11T14:03:01.293Z,5.68
2022-12-11T14:05:30.584Z,5.32
2022-12-11T14:08:03.750Z,6.15
2022-12-11T14:10:33.793Z,6.70
2022-12-11T14:13:07.286Z,5.85
2022-12-11T14:15:38.454Z,6.53
2022-12-11T14:18:07.346Z,5.28
2022-12-11T14:20:36.058Z,5.65
2022-12-11T14:23:09.583Z,6.05
2022-12-11T14:25:37.855Z,5.93
2022-12-11T14:28:18.203Z,6.78
2022-12-11T14:30:51.141Z,5.65
2022-12-11T14:33:23.367Z,5.15
2022-12-11T14:35:53.948Z,5.70
2022-12-11T14:38:26.315Z,5.18
2022-12-11T14:41:00.640Z,5.47
2022-12-11T14:43:35.186Z,6.82
2022-12-11T14:46:09.923Z,6.63
2022-12-11T14:48:44.819Z,5.00
2022-12-11T14:51:18.026Z,5.63
2022-12-11T14:53:50.650Z,5.53
2022-12-11T14:56:21.328Z,5.63
2022-12-11T14:58:57.708Z,5.45
2022-12-11T15:01:29.805Z,5.80
2022-12-11T15:04:07.107Z,6.32
2022-12-11T15:06:44.135Z,5.82
2022-12-11T15:09:20.503Z,6.20
2022-12-11T15:11:51.341Z,5.78
2022-12-11T15:14:24.169Z,5.88
2022-12-11T15:16:56.199Z,6.93
2022-12-11T15:19:28.997Z,6.00
2022-12-11T15:22:02.980Z,6.03
2022-12-11T15:24:39.317Z,6.63
2022-12-11T15:27:29.393Z,6.85
2022-12-11T15:30:00.340Z,7.28
2022-12-11T15:32:28.656Z,5.57
2022-12-11T15:34:58.949Z,6.65
2022-12-11T15:37:31.479Z,6.47
2022-12-11T15:40:02.053Z,7.15
2022-12-11T15:42:34.181Z,5.72
2022-12-11T15:45:07.200Z,6.75
2022-12-11T15:47:35.559Z,6.43
2022-12-11T15:50:18.158Z,6.28
2022-12-11T15:52:50.126Z,6.20
2022-12-11T15:55:19.243Z,6.53
2022-12-11T15:57:50.492Z,5.95
2022-12-11T16:00:23.927Z,6.68
2022-12-11T16:02:52.953Z,5.65
2022-12-11T16:05:21.621Z,6.45
2022-12-11T16:07:52.086Z,19.52
2022-12-11T16:10:23.084Z,8.82
2022-12-11T16:15:23.867Z,6.88
2022-12-11T16:18:03.220Z,6.10
2022-12-11T16:20:32.154Z,6.47
2022-12-11T16:23:00.670Z,6.68
2022-12-11T16:25:29.253Z,5.97
2022-12-11T16:27:58.924Z,6.30
2022-12-11T16:30:30.524Z,6.13
2022-12-11T16:32:58.766Z,5.93
2022-12-11T16:35:27.061Z,5.88
2022-12-11T16:37:56.131Z,6.75
2022-12-11T16:40:25.043Z,6.32
2022-12-11T16:42:54.199Z,5.93
2022-12-11T16:45:25.315Z,6.55
2022-12-11T16:47:55.162Z,6.90
2022-12-11T16:50:25.924Z,5.63
2022-12-11T16:52:54.156Z,6.20
2022-12-11T16:55:22.518Z,6.90
2022-12-11T16:57:50.755Z,6.00
2022-12-11T17:00:20.585Z,6.80
2022-12-11T17:02:49.010Z,6.53
2022-12-11T17:05:19.528Z,6.38
2022-12-11T17:07:47.789Z,6.53
2022-12-11T17:10:16.283Z,6.93
2022-12-11T17:12:44.531Z,6.63
2022-12-11T17:15:12.962Z,6.15
2022-12-11T17:17:43.216Z,7.25
2022-12-11T17:20:12.311Z,5.80
2022-12-11T17:22:41.936Z,7.55
2022-12-11T17:25:11.238Z,6.85
2022-12-11T17:27:39.709Z,6.72
2022-12-11T17:30:10.028Z,6.40
2022-12-11T17:32:38.429Z,5.75
2022-12-11T17:35:07.734Z,7.35
2022-12-11T17:37:36.164Z,5.93
2022-12-11T17:40:07.165Z,5.40
2022-12-11T17:45:03.531Z,6.35
2022-12-11T17:47:31.804Z,6.28
2022-12-11T17:50:00.151Z,6.15
2022-12-11T17:52:33.977Z,5.93
2022-12-11T17:55:03.253Z,6.43
2022-12-11T17:57:33.051Z,5.35
2022-12-11T18:00:01.297Z,6.43
2022-12-11T18:02:29.687Z,6.45
2022-12-11T18:04:57.915Z,6.18
2022-12-11T18:07:26.573Z,6.40
2022-12-11T18:09:55.003Z,6.88
2022-12-11T18:12:23.249Z,5.90
2022-12-11T18:14:52.804Z,6.68
2022-12-11T18:17:21.198Z,7.10
2022-12-11T18:19:49.387Z,6.25
2022-12-11T18:22:17.561Z,6.25
2022-12-11T18:24:46.440Z,6.30
2022-12-11T18:27:15.189Z,6.05
2022-12-11T18:29:43.391Z,6.40
2022-12-11T18:32:12.973Z,5.97
2022-12-11T18:34:41.278Z,7.50
2022-12-11T18:37:09.567Z,6.20
2022-12-11T18:39:37.857Z,7.28
2022-12-11T18:42:31.547Z,6.70
2022-12-11T18:44:54.572Z,5.93
2022-12-11T18:47:24.184Z,5.97
2022-12-11T18:49:52.609Z,5.72
2022-12-11T18:52:20.946Z,6.00
2022-12-11T18:54:52.103Z,5.82
2022-12-11T18:57:20.395Z,6.53
2022-12-11T18:59:52.394Z,6.72
2022-12-11T19:02:21.351Z,7.13
2022-12-11T19:04:50.999Z,6.70
2022-12-11T19:07:19.305Z,6.82
2022-12-11T19:09:48.400Z,7.05
2022-12-11T19:12:17.042Z,7.22
2022-12-11T19:14:45.239Z,7.18
2022-12-11T19:17:13.463Z,6.15
2022-12-11T19:19:43.188Z,6.18
2022-12-11T19:22:12.957Z,6.60
2022-12-11T19:24:41.258Z,6.60
2022-12-11T19:27:13.520Z,5.80
2022-12-11T19:29:42.327Z,6.13
2022-12-11T19:32:10.927Z,5.97
2022-12-11T19:34:39.495Z,6.57
2022-12-11T19:37:08.002Z,7.20
2022-12-11T19:39:40.732Z,6.63
2022-12-11T19:42:09.065Z,6.63
2022-12-11T19:44:37.359Z,6.57
2022-12-11T19:47:06.026Z,6.45
2022-12-11T19:49:34.351Z,5.97
2022-12-11T19:52:04.709Z,6.63
2022-12-11T19:54:33.854Z,6.38
2022-12-11T19:57:04.174Z,6.68
2022-12-11T19:59:33.527Z,6.40
2022-12-11T20:02:02.059Z,7.35
2022-12-11T20:04:30.450Z,7.07
2022-12-11T20:06:58.968Z,7.18
2022-12-11T20:09:27.874Z,15.02
2022-12-11T20:11:56.303Z,7.10
2022-12-11T20:14:27.800Z,7.05
2022-12-11T20:17:13.791Z,6.22
2022-12-11T20:19:43.603Z,6.00
2022-12-11T20:22:12.006Z,6.63
2022-12-11T20:24:40.521Z,7.10
2022-12-11T20:27:09.545Z,7.18
2022-12-11T20:29:39.310Z,7.10
2022-12-11T20:32:11.246Z,6.53
2022-12-11T20:34:39.857Z,6.50
2022-12-11T20:37:08.900Z,6.72
2022-12-11T20:39:37.886Z,7.07
2022-12-11T20:42:06.402Z,7.22
2022-12-11T20:44:34.821Z,5.70
2022-12-11T20:47:06.696Z,7.47
2022-12-11T20:49:35.457Z,6.60
2022-12-11T20:52:04.317Z,6.05
2022-12-11T20:54:32.683Z,6.65
2022-12-11T20:57:00.946Z,7.60
2022-12-11T20:59:29.256Z,6.60
2022-12-11T21:01:57.583Z,7.63
2022-12-11T21:04:27.390Z,6.38
2022-12-11T21:06:56.233Z,6.18
2022-12-11T21:09:26.766Z,6.28
2022-12-11T21:11:58.202Z,6.95
2022-12-11T21:14:26.415Z,7.95
2022-12-11T21:16:55.389Z,7.43
2022-12-11T21:19:23.890Z,6.75
2022-12-11T21:21:54.513Z,6.60
2022-12-11T21:24:26.619Z,7.00
2022-12-11T21:26:56.342Z,7.15
2022-12-11T21:29:25.990Z,7.00
2022-12-11T21:31:54.835Z,7.03
2022-12-11T21:34:25.530Z,6.55
2022-12-11T21:39:26.973Z,6.28
2022-12-11T21:41:55.310Z,7.13
2022-12-11T21:47:11.711Z,7.55
2022-12-11T21:49:40.119Z,7.90
2022-12-11T21:52:10.227Z,7.10
2022-12-11T21:54:39.552Z,6.73
2022-12-11T21:57:08.554Z,6.20
2022-12-11T21:59:37.011Z,6.70
2022-12-11T22:02:05.573Z,7.00
2022-12-11T22:04:33.862Z,6.47
2022-12-11T22:07:02.119Z,7.53
2022-12-11T22:09:31.710Z,7.45
2022-12-11T22:12:00.143Z,7.15
2022-12-11T22:14:30.862Z,7.15
2022-12-11T22:16:59.369Z,7.65
2022-12-11T22:19:32.331Z,7.00
2022-12-11T22:22:00.988Z,6.88
2022-12-11T22:24:29.211Z,7.50
2022-12-11T22:26:58.775Z,7.88
2022-12-11T22:29:27.161Z,7.45
2022-12-11T22:31:55.580Z,7.82
2022-12-11T22:34:24.195Z,7.65
2022-12-11T22:36:52.456Z,7.35
2022-12-11T22:39:20.660Z,7.13
2022-12-11T22:41:48.877Z,7.75
2022-12-11T22:44:21.561Z,7.45
2022-12-11T22:46:50.925Z,7.50
2022-12-11T22:49:19.440Z,7.47
2022-12-11T22:51:47.769Z,8.02
2022-12-11T22:54:16.315Z,7.90
2022-12-11T22:56:44.640Z,7.25
2022-12-11T22:59:12.967Z,7.60
2022-12-11T23:01:42.705Z,8.05
2022-12-11T23:04:11.011Z,8.68
2022-12-11T23:06:39.483Z,7.82
2022-12-11T23:09:08.167Z,7.15
2022-12-11T23:11:39.998Z,8.82
2022-12-11T23:14:12.612Z,7.57
2022-12-11T23:16:43.184Z,6.32
2022-12-11T23:19:12.817Z,8.52
2022-12-11T23:21:41.032Z,8.38
2022-12-11T23:24:10.076Z,6.68
2022-12-11T23:26:38.660Z,7.72
2022-12-11T23:29:07.882Z,7.05
2022-12-11T23:31:36.472Z,7.15
2022-12-11T23:34:06.580Z,7.68
2022-12-11T23:36:34.865Z,7.13
2022-12-11T23:39:03.176Z,7.22
2022-12-11T23:41:31.428Z,7.53
2022-12-11T23:43:59.899Z,7.65
2022-12-11T23:46:28.745Z,7.60
2022-12-11T23:48:57.098Z,8.20
2022-12-11T23:51:27.095Z,8.38
2022-12-11T23:53:55.643Z,8.52
2022-12-11T23:56:26.837Z,7.35
2022-12-11T23:58:56.032Z,7.22
